Time;durP1;ratioP1;P1;durP2;ratioP2;P2;SDS_P1;SDS_P2;PMS_P1;PMS_P2;Temp;Humidity;BMP_temperature;BMP_pressure;BME280_temperature;BME280_humidity;BME280_pressure;Samples;Min_cycle;Max_cycle;Signal;HPM_P1;HPM_P2
2021/07/08 00:02:11;;;;;;;10.00;8.85;;;;;;;;;;256559;1093;102991;-74
2021/07/08 00:07:13;;;;;;;9.40;8.50;;;;;;;;;;256053;1093;103021;-74
2021/07/08 00:12:14;;;;;;;8.08;7.45;;;;;;;;;;256243;1093;103082;-73
2021/07/08 00:17:16;;;;;;;8.58;7.63;;;;;;;;;;255869;1093;103092;-70
2021/07/08 00:22:18;;;;;;;9.98;8.30;;;;;;;;;;255928;1093;103076;-72
2021/07/08 00:27:20;;;;;;;8.98;7.13;;;;;;;;;;256054;1093;104304;-71
2021/07/08 00:32:22;;;;;;;8.75;7.95;;;;;;;;;;255826;1096;103034;-72
2021/07/08 00:37:24;;;;;;;7.03;6.07;;;;;;;;;;256040;1093;103114;-72
2021/07/08 00:42:25;;;;;;;12.70;6.35;;;;;;;;;;255903;1092;103124;-73
2021/07/08 00:47:27;;;;;;;5.95;5.40;;;;;;;;;;255971;1093;103035;-72
2021/07/08 00:52:29;;;;;;;7.55;6.85;;;;;;;;;;255744;1093;103111;-72
2021/07/08 00:57:31;;;;;;;7.30;6.40;;;;;;;;;;256248;1092;103037;-73
2021/07/08 01:02:33;;;;;;;6.43;5.83;;;;;;;;;;255853;1093;103138;-71
2021/07/08 01:07:36;;;;;;;7.03;6.03;;;;;;;;;;256242;1093;103041;-71
2021/07/08 01:12:38;;;;;;;5.78;5.10;;;;;;;;;;255818;1092;103062;-71
2021/07/08 01:17:40;;;;;;;5.60;5.13;;;;;;;;;;255861;1093;103383;-70
2021/07/08 01:22:42;;;;;;;6.23;5.60;;;;;;;;;;255981;1093;103396;-71
2021/07/08 01:27:44;;;;;;;7.75;6.45;;;;;;;;;;255888;1093;103114;-71
2021/07/08 01:32:47;;;;;;;8.18;7.48;;;;;;;;;;255987;1093;103031;-70
2021/07/08 01:37:48;;;;;;;9.98;7.90;;;;;;;;;;255944;1092;103031;-73
2021/07/08 01:42:50;;;;;;;8.80;7.30;;;;;;;;;;255824;1093;103023;-71
2021/07/08 01:47:53;;;;;;;10.13;7.30;;;;;;;;;;258654;1093;103014;-70
2021/07/08 01:52:54;;;;;;;7.38;6.78;;;;;;;;;;256577;1093;103029;-70
2021/07/08 01:57:57;;;;;;;6.17;5.73;;;;;;;;;;255707;1093;103104;-71
2021/07/08 02:02:59;;;;;;;7.00;6.13;;;;;;;;;;256030;1093;103106;-72
2021/07/08 02:08:02;;;;;;;5.33;4.93;;;;;;;;;;256066;1093;103032;-71
2021/07/08 02:13:04;;;;;;;9.15;7.60;;;;;;;;;;255954;1092;103027;-71
2021/07/08 02:18:06;;;;;;;6.83;5.80;;;;;;;;;;255996;1093;103007;-71
2021/07/08 02:23:08;;;;;;;9.63;6.17;;;;;;;;;;256016;1093;103167;-70
2021/07/08 02:28:10;;;;;;;7.45;6.35;;;;;;;;;;255756;1093;103520;-72
2021/07/08 02:33:12;;;;;;;9.23;6.58;;;;;;;;;;255991;1093;103550;-71
2021/07/08 02:38:13;;;;;;;7.75;7.03;;;;;;;;;;255858;1092;103406;-71
2021/07/08 02:43:15;;;;;;;9.60;7.17;;;;;;;;;;255925;1093;118981;-72
2021/07/08 02:48:19;;;;;;;10.60;8.18;;;;;;;;;;255799;1092;103183;-70
2021/07/08 02:53:21;;;;;;;12.50;10.98;;;;;;;;;;255839;1092;103009;-72
2021/07/08 02:58:23;;;;;;;19.20;15.38;;;;;;;;;;256281;1093;103091;-72
2021/07/08 03:03:24;;;;;;;18.53;15.13;;;;;;;;;;256256;1093;103089;-71
2021/07/08 03:08:26;;;;;;;21.88;18.40;;;;;;;;;;255963;1093;103264;-71
2021/07/08 03:13:28;;;;;;;23.68;19.40;;;;;;;;;;255726;1093;103151;-69
2021/07/08 03:18:30;;;;;;;21.70;18.38;;;;;;;;;;255823;1092;103118;-71
2021/07/08 03:23:34;;;;;;;19.78;17.48;;;;;;;;;;256690;1093;103091;-70
2021/07/08 03:28:37;;;;;;;18.40;16.68;;;;;;;;;;257151;1092;103092;-70
2021/07/08 03:33:39;;;;;;;16.08;14.48;;;;;;;;;;256614;1093;103117;-73
2021/07/08 03:38:40;;;;;;;13.78;12.55;;;;;;;;;;256424;1092;103039;-71
2021/07/08 03:43:42;;;;;;;13.75;12.55;;;;;;;;;;255781;1093;103131;-72
2021/07/08 03:48:44;;;;;;;16.30;14.53;;;;;;;;;;256333;1093;103103;-72
2021/07/08 03:53:46;;;;;;;15.18;13.88;;;;;;;;;;256164;1093;103129;-71
2021/07/08 03:58:48;;;;;;;16.70;15.20;;;;;;;;;;255590;1093;103087;-71
2021/07/08 04:03:50;;;;;;;16.00;14.33;;;;;;;;;;255898;1093;103007;-71
2021/07/08 04:08:52;;;;;;;16.00;14.38;;;;;;;;;;256089;1093;103004;-73
2021/07/08 04:13:54;;;;;;;16.63;14.93;;;;;;;;;;255808;1093;103015;-72
2021/07/08 04:18:56;;;;;;;16.40;14.50;;;;;;;;;;255978;1093;103087;-71
2021/07/08 04:23:58;;;;;;;15.55;14.15;;;;;;;;;;255960;1092;103012;-71
2021/07/08 04:28:59;;;;;;;17.43;15.80;;;;;;;;;;256297;1093;103168;-72
2021/07/08 04:34:02;;;;;;;20.18;17.28;;;;;;;;;;256022;1093;103015;-72
2021/07/08 04:39:04;;;;;;;17.65;16.15;;;;;;;;;;256111;1092;103088;-72
2021/07/08 04:44:06;;;;;;;18.47;16.77;;;;;;;;;;256023;1093;103467;-71
2021/07/08 04:49:08;;;;;;;21.23;19.18;;;;;;;;;;255846;1093;103103;-71
2021/07/08 04:54:10;;;;;;;23.43;20.93;;;;;;;;;;255816;1092;103015;-72
2021/07/08 04:59:11;;;;;;;30.70;27.40;;;;;;;;;;255773;1092;103085;-72
2021/07/08 05:04:13;;;;;;;36.68;32.40;;;;;;;;;;255879;1092;103543;-73
2021/07/08 05:09:15;;;;;;;34.00;30.40;;;;;;;;;;255942;1093;103033;-71
2021/07/08 05:14:17;;;;;;;36.90;29.15;;;;;;;;;;255915;1093;104479;-72
2021/07/08 05:19:19;;;;;;;40.10;30.98;;;;;;;;;;255831;1093;103172;-71
2021/07/08 05:24:23;;;;;;;36.13;29.85;;;;;;;;;;255999;1093;103450;-70
2021/07/08 05:29:25;;;;;;;36.63;32.70;;;;;;;;;;256071;1093;103085;-71
2021/07/08 05:34:27;;;;;;;43.00;35.67;;;;;;;;;;256330;1092;103004;-70
2021/07/08 05:39:29;;;;;;;40.73;33.78;;;;;;;;;;256012;1092;103119;-72
2021/07/08 05:44:32;;;;;;;39.83;33.75;;;;;;;;;;255946;1093;103150;-71
2021/07/08 05:49:34;;;;;;;40.45;35.83;;;;;;;;;;255991;1093;103031;-73
2021/07/08 05:54:36;;;;;;;38.48;34.33;;;;;;;;;;255834;1093;103033;-73
2021/07/08 05:59:37;;;;;;;37.00;32.43;;;;;;;;;;256186;1093;103012;-71
2021/07/08 06:04:40;;;;;;;37.13;33.25;;;;;;;;;;255749;1093;103058;-72
2021/07/08 06:09:42;;;;;;;40.65;36.33;;;;;;;;;;255772;1093;103131;-72
2021/07/08 06:14:43;;;;;;;42.83;36.75;;;;;;;;;;255877;1093;103044;-72
2021/07/08 06:19:45;;;;;;;42.37;37.77;;;;;;;;;;255928;1093;103031;-71
2021/07/08 06:24:47;;;;;;;47.18;42.08;;;;;;;;;;255840;1093;103018;-73
2021/07/08 06:29:49;;;;;;;46.03;41.05;;;;;;;;;;255871;1093;103044;-71
2021/07/08 06:34:51;;;;;;;46.47;41.23;;;;;;;;;;255779;1093;103030;-71
2021/07/08 06:39:53;;;;;;;43.47;38.80;;;;;;;;;;255742;1093;103956;-72
2021/07/08 06:44:55;;;;;;;44.10;36.40;;;;;;;;;;255856;1092;103261;-72
2021/07/08 06:49:57;;;;;;;43.38;38.65;;;;;;;;;;255920;1092;103106;-71
2021/07/08 06:54:59;;;;;;;47.73;42.40;;;;;;;;;;257150;1093;103051;-72
2021/07/08 07:00:01;;;;;;;53.03;43.20;;;;;;;;;;256473;1093;103210;-72
2021/07/08 07:05:03;;;;;;;47.45;42.13;;;;;;;;;;257602;1093;103097;-72
2021/07/08 07:10:05;;;;;;;49.33;43.00;;;;;;;;;;256869;1093;103037;-71
2021/07/08 07:15:07;;;;;;;46.10;40.88;;;;;;;;;;255661;1093;103030;-69
2021/07/08 07:20:10;;;;;;;46.65;40.43;;;;;;;;;;255814;1093;103210;-72
2021/07/08 07:25:13;;;;;;;49.90;41.75;;;;;;;;;;255654;1092;103185;-71
2021/07/08 07:30:16;;;;;;;51.23;42.63;;;;;;;;;;255681;1093;103087;-72
2021/07/08 07:35:18;;;;;;;50.88;45.23;;;;;;;;;;255792;1093;103086;-71
2021/07/08 07:40:20;;;;;;;52.30;46.55;;;;;;;;;;255808;1093;103163;-71
2021/07/08 07:45:22;;;;;;;55.83;47.85;;;;;;;;;;255741;1092;103066;-70
2021/07/08 07:50:25;;;;;;;53.43;47.15;;;;;;;;;;256035;1093;103170;-71
2021/07/08 07:55:27;;;;;;;48.35;43.15;;;;;;;;;;255787;1093;103087;-70
2021/07/08 08:00:29;;;;;;;48.08;42.85;;;;;;;;;;255776;1093;112695;-72
2021/07/08 08:10:34;;;;;;;52.08;46.53;;;;;;;;;;255766;1092;103115;-75
2021/07/08 08:15:35;;;;;;;51.30;46.03;;;;;;;;;;256452;1092;103146;-73
2021/07/08 08:20:38;;;;;;;50.53;45.28;;;;;;;;;;255821;1093;103029;-72
2021/07/08 08:25:40;;;;;;;50.10;44.88;;;;;;;;;;258322;1093;103108;-72
2021/07/08 08:30:44;;;;;;;47.15;42.20;;;;;;;;;;258318;1093;103103;-72
2021/07/08 08:35:46;;;;;;;45.23;40.63;;;;;;;;;;256141;1093;103364;-73
2021/07/08 08:40:49;;;;;;;46.30;41.73;;;;;;;;;;255834;1093;103262;-73
2021/07/08 08:45:51;;;;;;;46.35;42.00;;;;;;;;;;258426;1093;103010;-72
2021/07/08 08:50:53;;;;;;;47.55;42.75;;;;;;;;;;259400;1093;103124;-72
2021/07/08 08:55:55;;;;;;;41.80;37.48;;;;;;;;;;257296;1093;103629;-72
2021/07/08 09:00:57;;;;;;;41.05;36.90;;;;;;;;;;255878;1093;103020;-71
2021/07/08 09:06:07;;;;;;;40.65;36.60;;;;;;;;;;256172;1091;103084;-71
2021/07/08 09:11:08;;;;;;;40.67;36.73;;;;;;;;;;256006;1093;103007;-73
2021/07/08 09:16:11;;;;;;;36.83;33.20;;;;;;;;;;255800;1093;103100;-72
2021/07/08 09:21:14;;;;;;;40.08;36.40;;;;;;;;;;255654;1093;103147;-73
2021/07/08 09:26:17;;;;;;;39.85;35.95;;;;;;;;;;255968;1093;103147;-72
2021/07/08 09:31:19;;;;;;;41.30;37.48;;;;;;;;;;255813;1093;103290;-71
2021/07/08 09:36:21;;;;;;;36.48;33.03;;;;;;;;;;255830;1092;103005;-72
2021/07/08 09:41:24;;;;;;;35.48;32.18;;;;;;;;;;255828;1093;103105;-72
2021/07/08 09:46:33;;;;;;;36.90;33.40;;;;;;;;;;255824;1093;103016;-72
2021/07/08 09:51:35;;;;;;;37.68;34.23;;;;;;;;;;255824;1093;103100;-72
2021/07/08 09:56:49;;;;;;;36.85;33.45;;;;;;;;;;255861;1092;103348;-71
2021/07/08 10:01:51;;;;;;;;;;;;;;;;;;256234;1092;103100;-72
2021/07/08 10:06:54;;;;;;;37.38;33.83;;;;;;;;;;256227;1092;103033;-71
2021/07/08 10:11:56;;;;;;;36.00;32.60;;;;;;;;;;256084;1093;103093;-72
2021/07/08 10:16:58;;;;;;;39.00;35.40;;;;;;;;;;255806;1092;103047;-72
2021/07/08 10:22:00;;;;;;;39.18;35.65;;;;;;;;;;255696;1093;104540;-72
2021/07/08 10:27:02;;;;;;;39.23;35.40;;;;;;;;;;256115;1092;104279;-76
2021/07/08 10:32:05;;;;;;;38.18;34.23;;;;;;;;;;257111;1092;105088;-72
2021/07/08 10:37:07;;;;;;;37.73;34.25;;;;;;;;;;256716;1093;103252;-72
2021/07/08 10:42:09;;;;;;;36.40;32.93;;;;;;;;;;258774;1092;103486;-71
2021/07/08 10:47:30;;;;;;;33.60;30.50;;;;;;;;;;255745;1093;103078;-73
2021/07/08 10:52:43;;;;;;;34.58;31.38;;;;;;;;;;255803;1091;103030;-73
2021/07/08 10:57:45;;;;;;;32.25;29.05;;;;;;;;;;255792;1093;103116;-72
2021/07/08 11:02:49;;;;;;;34.40;31.33;;;;;;;;;;255884;1093;103071;-72
2021/07/08 11:07:51;;;;;;;32.57;29.57;;;;;;;;;;255929;1093;103021;-72
2021/07/08 11:12:53;;;;;;;31.58;28.78;;;;;;;;;;255788;1093;103063;-71
2021/07/08 11:17:55;;;;;;;34.87;31.70;;;;;;;;;;255937;1093;103032;-73
2021/07/08 11:23:17;;;;;;;34.17;30.93;;;;;;;;;;255786;1093;103139;-73
2021/07/08 11:28:26;;;;;;;32.40;29.63;;;;;;;;;;255766;1092;103013;-71
2021/07/08 11:33:29;;;;;;;32.43;29.78;;;;;;;;;;255840;1093;103744;-72
2021/07/08 11:38:31;;;;;;;31.57;28.77;;;;;;;;;;255769;1093;103020;-71
2021/07/08 11:43:33;;;;;;;32.98;30.18;;;;;;;;;;255977;1093;103009;-70
2021/07/08 11:48:38;;;;;;;30.53;27.98;;;;;;;;;;255799;1092;103111;-73
2021/07/08 11:53:41;;;;;;;34.58;31.55;;;;;;;;;;255937;1093;103065;-72
2021/07/08 11:58:42;;;;;;;36.15;32.95;;;;;;;;;;255902;1093;103096;-72
2021/07/08 12:03:47;;;;;;;33.35;30.35;;;;;;;;;;256019;1092;103429;-72
2021/07/08 12:08:51;;;;;;;31.47;28.87;;;;;;;;;;256169;1093;103015;-72
2021/07/08 12:13:53;;;;;;;28.85;26.35;;;;;;;;;;255778;1093;103109;-72
2021/07/08 12:18:55;;;;;;;31.67;28.90;;;;;;;;;;256223;1092;103028;-75
2021/07/08 12:24:01;;;;;;;31.40;28.60;;;;;;;;;;257177;1092;103028;-72
2021/07/08 12:29:18;;;;;;;32.20;29.48;;;;;;;;;;258862;1093;103325;-73
2021/07/08 12:34:25;;;;;;;27.35;24.85;;;;;;;;;;256779;1093;103063;-73
2021/07/08 12:39:27;;;;;;;29.40;27.00;;;;;;;;;;256270;1093;103085;-72
2021/07/08 12:44:29;;;;;;;28.47;25.97;;;;;;;;;;255875;1093;103105;-70
2021/07/08 12:49:31;;;;;;;27.87;25.23;;;;;;;;;;255761;1093;103088;-74
2021/07/08 12:54:33;;;;;;;28.15;25.63;;;;;;;;;;255742;1092;103191;-70
2021/07/08 12:59:37;;;;;;;29.25;26.68;;;;;;;;;;256137;1093;103115;-71
2021/07/08 13:04:38;;;;;;;28.13;25.23;;;;;;;;;;255655;1093;103028;-71
2021/07/08 13:09:40;;;;;;;27.50;25.00;;;;;;;;;;255934;1093;103080;-72
2021/07/08 13:14:42;;;;;;;27.90;25.45;;;;;;;;;;256165;1092;103007;-71
2021/07/08 13:19:46;;;;;;;27.83;25.20;;;;;;;;;;255850;1093;103137;-73
2021/07/08 13:24:47;;;;;;;;;;;;;;;;;;255798;1093;103124;-70
2021/07/08 13:29:49;;;;;;;27.08;24.63;;;;;;;;;;255761;1092;103064;-71
2021/07/08 13:34:52;;;;;;;29.58;27.08;;;;;;;;;;259097;1093;103122;-72
2021/07/08 13:40:06;;;;;;;27.90;25.40;;;;;;;;;;258537;1093;103053;-72
2021/07/08 13:45:43;;;;;;;25.60;23.57;;;;;;;;;;255768;1093;103068;-72
2021/07/08 13:50:45;;;;;;;27.55;25.00;;;;;;;;;;255312;1093;103175;-70
2021/07/08 13:55:47;;;;;;;28.33;25.98;;;;;;;;;;255870;1093;103540;-73
2021/07/08 14:00:49;;;;;;;27.63;25.18;;;;;;;;;;255870;1093;103018;-71
2021/07/08 14:05:51;;;;;;;27.30;25.25;;;;;;;;;;256195;1093;103091;-73
2021/07/08 14:10:53;;;;;;;27.43;24.93;;;;;;;;;;255892;1093;103167;-76
2021/07/08 14:15:55;;;;;;;28.17;25.97;;;;;;;;;;255804;1093;103089;-73
2021/07/08 14:20:57;;;;;;;28.10;25.80;;;;;;;;;;256022;1092;103490;-72
2021/07/08 14:25:59;;;;;;;27.77;25.37;;;;;;;;;;255740;1093;103147;-73
2021/07/08 14:31:01;;;;;;;27.50;25.30;;;;;;;;;;255884;1093;103254;-72
2021/07/08 14:36:04;;;;;;;26.53;24.20;;;;;;;;;;255770;1093;103175;-73
2021/07/08 14:41:07;;;;;;;27.18;24.85;;;;;;;;;;256087;1093;103030;-72
2021/07/08 14:46:11;;;;;;;28.98;26.58;;;;;;;;;;255771;1093;103092;-74
2021/07/08 14:51:13;;;;;;;;;;;;;;;;;;255897;1093;103025;-72
2021/07/08 14:56:15;;;;;;;29.35;27.00;;;;;;;;;;256045;1092;103008;-73
2021/07/08 15:01:17;;;;;;;29.40;26.80;;;;;;;;;;255859;1093;103409;-73
2021/07/08 15:06:19;;;;;;;28.43;25.80;;;;;;;;;;255969;1093;103079;-73
2021/07/08 15:11:21;;;;;;;29.10;26.55;;;;;;;;;;255935;1093;103127;-72
2021/07/08 15:16:23;;;;;;;28.78;26.08;;;;;;;;;;255965;1092;103103;-73
2021/07/08 15:21:24;;;;;;;31.40;28.50;;;;;;;;;;256060;1093;103116;-73
2021/07/08 15:26:26;;;;;;;30.83;27.83;;;;;;;;;;255757;1093;103173;-73
2021/07/08 15:31:28;;;;;;;28.98;26.23;;;;;;;;;;255879;1093;103940;-73
2021/07/08 15:36:31;;;;;;;27.70;25.30;;;;;;;;;;255902;1093;103087;-73
2021/07/08 15:41:33;;;;;;;37.30;33.60;;;;;;;;;;256082;1093;103032;-71
2021/07/08 15:46:38;;;;;;;27.83;25.08;;;;;;;;;;256561;1093;103009;-77
2021/07/08 15:51:40;;;;;;;11.10;10.10;;;;;;;;;;256412;1093;103666;-71
2021/07/08 15:56:43;;;;;;;7.93;6.07;;;;;;;;;;255646;1093;103101;-70
2021/07/08 16:01:45;;;;;;;9.10;6.85;;;;;;;;;;255779;1093;103082;-73
2021/07/08 16:06:47;;;;;;;6.50;5.63;;;;;;;;;;255619;1093;103055;-72
2021/07/08 16:11:49;;;;;;;8.73;6.95;;;;;;;;;;255749;1093;103086;-72
2021/07/08 16:16:51;;;;;;;5.55;5.00;;;;;;;;;;257975;1093;103113;-72
2021/07/08 16:21:53;;;;;;;5.10;4.40;;;;;;;;;;255933;1092;103153;-73
2021/07/08 16:26:56;;;;;;;6.73;4.60;;;;;;;;;;256198;1092;103092;-74
2021/07/08 16:31:58;;;;;;;7.57;4.07;;;;;;;;;;255772;1093;103086;-73
2021/07/08 16:37:00;;;;;;;4.30;3.90;;;;;;;;;;256695;1093;103428;-72
2021/07/08 16:42:02;;;;;;;4.30;3.90;;;;;;;;;;256511;1093;103533;-72
2021/07/08 16:47:04;;;;;;;4.50;4.05;;;;;;;;;;256047;1092;103079;-73
2021/07/08 16:52:08;;;;;;;4.43;4.03;;;;;;;;;;256458;1093;103049;-72
2021/07/08 16:57:10;;;;;;;4.37;3.97;;;;;;;;;;255690;1092;103131;-72
2021/07/08 17:02:12;;;;;;;5.73;4.95;;;;;;;;;;255818;1093;103015;-71
2021/07/08 17:07:14;;;;;;;6.05;5.55;;;;;;;;;;255916;1093;103167;-73
2021/07/08 17:12:16;;;;;;;5.80;5.30;;;;;;;;;;256242;1096;103454;-72
2021/07/08 17:17:18;;;;;;;5.90;5.18;;;;;;;;;;255927;1093;103029;-73
2021/07/08 17:22:19;;;;;;;5.70;5.20;;;;;;;;;;255786;1093;103466;-71
2021/07/08 17:27:22;;;;;;;8.28;5.28;;;;;;;;;;255877;1093;103086;-73
2021/07/08 17:32:25;;;;;;;6.78;5.10;;;;;;;;;;255935;1095;103180;-72
2021/07/08 17:37:27;;;;;;;5.60;5.13;;;;;;;;;;256010;1093;103086;-72
2021/07/08 17:42:30;;;;;;;5.58;5.08;;;;;;;;;;256571;1093;103030;-71
2021/07/08 17:47:32;;;;;;;6.63;6.00;;;;;;;;;;256348;1093;103086;-71
2021/07/08 17:52:35;;;;;;;5.68;5.18;;;;;;;;;;255928;1095;103413;-71
2021/07/08 17:57:37;;;;;;;6.85;5.85;;;;;;;;;;256035;1094;103076;-71
2021/07/08 18:02:39;;;;;;;6.63;5.95;;;;;;;;;;255871;1093;103031;-69
2021/07/08 18:07:41;;;;;;;7.60;7.00;;;;;;;;;;255726;1093;104339;-70
2021/07/08 18:12:43;;;;;;;6.60;6.03;;;;;;;;;;256111;1093;103088;-74
2021/07/08 18:31:58;;;;;;;10.95;9.85;;;;;;;21.97;83.80;100819.77;257983;1090;103001;-73
2021/07/08 18:37:01;;;;;;;9.43;8.63;;;;;;;21.67;86.04;100827.61;256862;1093;114116;-73
2021/07/08 18:42:03;;;;;;;9.80;8.95;;;;;;;21.63;86.40;100829.90;256987;1093;114218;-75
2021/07/08 18:47:05;;;;;;;11.00;10.00;;;;;;;21.59;86.42;100844.00;256835;1093;114198;-73
2021/07/08 18:52:08;;;;;;;10.35;9.35;;;;;;;21.56;86.16;100837.17;256781;1092;114633;-72
2021/07/08 18:57:10;;;;;;;10.90;10.00;;;;;;;21.59;85.70;100852.89;256991;1093;114079;-73
2021/07/08 19:02:13;;;;;;;10.43;9.45;;;;;;;21.59;84.92;100855.58;256916;1093;114527;-74
2021/07/08 19:07:15;;;;;;;11.60;10.70;;;;;;;21.61;84.62;100858.04;256860;1093;114055;-73
2021/07/08 19:12:19;;;;;;;13.30;12.00;;;;;;;21.57;85.04;100865.74;256501;1092;114509;-73
2021/07/08 19:17:21;;;;;;;14.05;12.78;;;;;;;21.60;84.73;100859.91;255802;1096;114625;-74
2021/07/08 19:22:24;;;;;;;14.03;11.53;;;;;;;21.55;84.78;100862.42;256934;1096;114773;-76
2021/07/08 19:27:27;;;;;;;12.58;11.45;;;;;;;21.56;85.04;100864.06;256905;1095;115427;-74
2021/07/08 19:32:29;;;;;;;13.88;11.25;;;;;;;21.58;85.18;100861.19;256753;1096;114994;-75
2021/07/08 19:37:32;;;;;;;12.93;11.63;;;;;;;21.60;85.11;100870.67;256770;1094;115461;-73
2021/07/08 19:42:35;;;;;;;12.50;11.30;;;;;;;21.61;84.63;100864.27;256712;1095;115093;-74
2021/07/08 19:47:37;;;;;;;14.83;13.33;;;;;;;21.56;85.05;100858.69;256948;1094;114422;-76
2021/07/08 19:52:41;;;;;;;14.75;13.33;;;;;;;21.54;84.95;100860.78;256935;1095;114418;-76
2021/07/08 19:57:44;;;;;;;15.33;13.83;;;;;;;21.55;85.19;100857.05;257163;1096;114761;-75
2021/07/08 20:02:46;;;;;;;13.58;12.35;;;;;;;21.59;85.19;100847.51;257020;1096;115147;-74
2021/07/08 20:07:49;;;;;;;13.35;12.15;;;;;;;21.68;84.96;100840.83;256891;1097;115033;-74
2021/07/08 20:12:53;;;;;;;13.68;12.38;;;;;;;21.60;85.25;100832.19;256810;1096;115021;-76
2021/07/08 20:18:03;;;;;;;15.68;13.75;;;;;;;21.68;84.41;100824.69;256728;1096;115330;-74
2021/07/08 20:23:06;;;;;;;16.25;14.60;;;;;;;21.66;84.76;100810.64;256863;1096;115141;-74
2021/07/08 20:28:09;;;;;;;17.65;13.48;;;;;;;21.71;84.30;100810.81;256679;1096;114780;-73
2021/07/08 20:33:12;;;;;;;15.10;13.50;;;;;;;21.68;83.95;100800.47;256643;1095;114823;-74
2021/07/08 20:38:14;;;;;;;15.55;13.95;;;;;;;21.74;84.32;100780.79;256924;1096;114446;-78
2021/07/08 20:43:17;;;;;;;14.28;12.93;;;;;;;21.78;83.79;100765.04;257020;1094;114774;-77
2021/07/08 20:48:19;;;;;;;14.00;12.60;;;;;;;21.88;83.64;100754.59;256988;1095;114491;-77
2021/07/08 20:53:24;;;;;;;14.10;12.67;;;;;;;21.96;83.12;100756.20;257111;1095;114819;-76
2021/07/08 20:58:27;;;;;;;13.28;11.95;;;;;;;21.90;83.41;100749.83;257111;1096;114802;-75
2021/07/08 21:03:29;;;;;;;16.70;15.13;;;;;;;21.91;83.57;100754.17;257346;1095;114680;-78
2021/07/08 21:08:31;;;;;;;19.53;15.88;;;;;;;21.96;83.16;100740.90;258051;1096;114651;-78
2021/07/08 21:13:33;;;;;;;19.15;16.80;;;;;;;21.97;82.93;100739.03;258693;1096;114599;-75
2021/07/08 21:18:35;;;;;;;15.53;14.25;;;;;;;21.98;82.82;100727.20;259473;1095;115069;-77
2021/07/08 21:23:40;;;;;;;13.30;11.78;;;;;;;22.00;82.09;100741.28;258305;1095;114382;-77
2021/07/08 21:28:43;;;;;;;11.53;10.18;;;;;;;21.99;81.99;100745.81;260001;1095;114875;-76
2021/07/08 21:33:45;;;;;;;11.08;10.13;;;;;;;21.84;82.04;100741.80;258120;1096;114552;-76
2021/07/08 21:38:47;;;;;;;11.95;10.38;;;;;;;21.70;81.60;100741.09;257216;1096;114795;-76
2021/07/08 21:43:50;;;;;;;14.08;10.20;;;;;;;21.68;82.06;100733.22;256797;1094;114405;-77
2021/07/08 21:48:54;;;;;;;10.90;9.95;;;;;;;21.70;81.22;100736.53;256886;1096;114800;-76
2021/07/08 21:54:01;;;;;;;10.85;9.78;;;;;;;21.70;81.04;100736.53;257038;1096;114236;-77
2021/07/08 21:59:05;;;;;;;11.10;9.97;;;;;;;21.70;81.20;100724.95;256998;1096;114530;-76
2021/07/08 22:04:07;;;;;;;10.50;9.60;;;;;;;21.67;81.45;100720.82;256855;1095;114584;-76
2021/07/08 22:09:09;;;;;;;11.03;10.03;;;;;;;21.67;81.04;100723.51;256942;1095;114301;-78
2021/07/08 22:14:12;;;;;;;9.88;8.98;;;;;;;21.59;81.10;100702.26;256755;1094;114539;-73
2021/07/08 22:19:14;;;;;;;9.73;8.98;;;;;;;21.58;81.38;100700.62;255638;1095;114224;-73
2021/07/08 22:24:16;;;;;;;10.87;10.03;;;;;;;21.56;81.40;100702.69;256031;1096;114296;-72
2021/07/08 22:29:19;;;;;;;10.38;9.43;;;;;;;21.58;81.04;100700.62;256228;1095;114466;-71
2021/07/08 22:34:21;;;;;;;10.57;9.47;;;;;;;21.53;81.03;100706.66;256650;1095;114314;-72
2021/07/08 22:39:23;;;;;;;9.83;8.85;;;;;;;21.61;80.45;100710.09;255934;1096;114341;-72
2021/07/08 22:44:25;;;;;;;13.85;9.98;;;;;;;21.55;80.84;100697.53;255891;1095;114294;-72
2021/07/08 22:49:28;;;;;;;11.43;9.17;;;;;;;21.47;80.92;100704.00;255839;1096;114331;-72
2021/07/08 22:54:31;;;;;;;10.43;9.38;;;;;;;21.43;80.80;100708.17;255807;1095;114422;-74
2021/07/08 22:59:33;;;;;;;10.48;9.48;;;;;;;21.43;80.27;100713.55;256707;1096;114563;-72
2021/07/08 23:04:36;;;;;;;9.50;8.70;;;;;;;21.39;80.16;100723.91;256319;1095;114517;-71
2021/07/08 23:09:38;;;;;;;11.08;10.23;;;;;;;21.47;79.82;100738.96;256506;1095;114322;-72
2021/07/08 23:14:40;;;;;;;10.75;9.83;;;;;;;21.44;80.26;100731.32;256764;1095;114404;-73
2021/07/08 23:19:43;;;;;;;11.03;10.03;;;;;;;21.38;80.58;100737.58;256851;1096;114306;-72
2021/07/08 23:24:45;;;;;;;10.83;9.68;;;;;;;21.46;80.38;100731.94;256357;1095;114618;-73
2021/07/08 23:29:47;;;;;;;10.20;9.15;;;;;;;21.56;79.97;100729.58;256605;1095;114928;-72
2021/07/08 23:34:50;;;;;;;10.67;9.57;;;;;;;21.50;80.23;100752.80;256555;1095;114294;-72
2021/07/08 23:39:58;;;;;;;10.13;9.10;;;;;;;21.59;79.66;100756.05;256878;1094;114408;-72
